sensor_id;sensor_type;location;lat;lon;timestamp;P1;durP1;ratioP1;P2;durP2;ratioP2
9445;SDS011;4761;49.490;10.908;2022-11-09T00:00:29;3.97;;;3.30;;
9445;SDS011;4761;49.490;10.908;2022-11-09T00:02:54;4.77;;;3.77;;
9445;SDS011;4761;49.490;10.908;2022-11-09T00:05:20;4.37;;;3.60;;
9445;SDS011;4761;49.490;10.908;2022-11-09T00:07:45;4.30;;;3.37;;
9445;SDS011;4761;49.490;10.908;2022-11-09T00:10:11;4.47;;;3.50;;
9445;SDS011;4761;49.490;10.908;2022-11-09T00:12:36;4.63;;;3.57;;
9445;SDS011;4761;49.490;10.908;2022-11-09T00:15:02;4.60;;;3.77;;
9445;SDS011;4761;49.490;10.908;2022-11-09T00:17:28;6.27;;;3.57;;
9445;SDS011;4761;49.490;10.908;2022-11-09T00:19:53;3.93;;;3.40;;
9445;SDS011;4761;49.490;10.908;2022-11-09T00:22:19;4.47;;;3.37;;
9445;SDS011;4761;49.490;10.908;2022-11-09T00:24:44;3.20;;;2.90;;
9445;SDS011;4761;49.490;10.908;2022-11-09T00:27:11;4.67;;;3.23;;
9445;SDS011;4761;49.490;10.908;2022-11-09T00:29:36;3.07;;;2.77;;
9445;SDS011;4761;49.490;10.908;2022-11-09T00:32:02;3.60;;;3.10;;
9445;SDS011;4761;49.490;10.908;2022-11-09T00:34:27;3.93;;;3.27;;
9445;SDS011;4761;49.490;10.908;2022-11-09T00:36:53;3.97;;;3.07;;
9445;SDS011;4761;49.490;10.908;2022-11-09T00:39:18;4.37;;;3.20;;
9445;SDS011;4761;49.490;10.908;2022-11-09T00:41:44;4.23;;;2.97;;
9445;SDS011;4761;49.490;10.908;2022-11-09T00:44:09;3.07;;;2.77;;
9445;SDS011;4761;49.490;10.908;2022-11-09T00:46:35;4.83;;;3.27;;
9445;SDS011;4761;49.490;10.908;2022-11-09T00:49:00;3.53;;;2.90;;
9445;SDS011;4761;49.490;10.908;2022-11-09T00:51:26;4.57;;;3.30;;
9445;SDS011;4761;49.490;10.908;2022-11-09T00:53:51;3.30;;;3.00;;
9445;SDS011;4761;49.490;10.908;2022-11-09T00:56:18;3.07;;;2.77;;
9445;SDS011;4761;49.490;10.908;2022-11-09T00:58:45;4.37;;;3.17;;
9445;SDS011;4761;49.490;10.908;2022-11-09T01:01:12;4.93;;;2.90;;
9445;SDS011;4761;49.490;10.908;2022-11-09T01:03:39;3.87;;;2.93;;
9445;SDS011;4761;49.490;10.908;2022-11-09T01:06:05;3.90;;;2.80;;
9445;SDS011;4761;49.490;10.908;2022-11-09T01:08:32;5.47;;;3.00;;
9445;SDS011;4761;49.490;10.908;2022-11-09T01:11:02;3.67;;;3.10;;
9445;SDS011;4761;49.490;10.908;2022-11-09T01:13:29;3.03;;;2.50;;
9445;SDS011;4761;49.490;10.908;2022-11-09T01:15:55;3.80;;;3.00;;
9445;SDS011;4761;49.490;10.908;2022-11-09T01:18:20;4.40;;;3.23;;
9445;SDS011;4761;49.490;10.908;2022-11-09T01:20:47;3.43;;;2.93;;
9445;SDS011;4761;49.490;10.908;2022-11-09T01:23:14;4.83;;;2.80;;
9445;SDS011;4761;49.490;10.908;2022-11-09T01:25:41;4.17;;;3.17;;
9445;SDS011;4761;49.490;10.908;2022-11-09T01:28:07;4.10;;;2.63;;
9445;SDS011;4761;49.490;10.908;2022-11-09T01:30:34;3.33;;;3.03;;
9445;SDS011;4761;49.490;10.908;2022-11-09T01:33:04;3.83;;;2.90;;
9445;SDS011;4761;49.490;10.908;2022-11-09T01:35:34;5.40;;;2.80;;
9445;SDS011;4761;49.490;10.908;2022-11-09T01:38:01;4.00;;;3.10;;
9445;SDS011;4761;49.490;10.908;2022-11-09T01:40:28;3.37;;;2.73;;
9445;SDS011;4761;49.490;10.908;2022-11-09T01:42:55;3.07;;;2.77;;
9445;SDS011;4761;49.490;10.908;2022-11-09T01:45:26;4.00;;;2.70;;
9445;SDS011;4761;49.490;10.908;2022-11-09T01:47:56;3.77;;;2.57;;
9445;SDS011;4761;49.490;10.908;2022-11-09T01:50:40;3.30;;;2.70;;
9445;SDS011;4761;49.490;10.908;2022-11-09T01:53:33;3.73;;;2.90;;
9445;SDS011;4761;49.490;10.908;2022-11-09T01:56:02;3.17;;;2.67;;
9445;SDS011;4761;49.490;10.908;2022-11-09T01:58:43;3.80;;;2.87;;
9445;SDS011;4761;49.490;10.908;2022-11-09T02:01:12;5.07;;;2.80;;
9445;SDS011;4761;49.490;10.908;2022-11-09T02:03:41;3.83;;;2.90;;
9445;SDS011;4761;49.490;10.908;2022-11-09T02:06:11;3.20;;;2.53;;
9445;SDS011;4761;49.490;10.908;2022-11-09T02:08:39;3.00;;;2.63;;
9445;SDS011;4761;49.490;10.908;2022-11-09T02:11:07;2.97;;;2.50;;
9445;SDS011;4761;49.490;10.908;2022-11-09T02:13:36;4.43;;;2.70;;
9445;SDS011;4761;49.490;10.908;2022-11-09T02:16:03;2.77;;;2.47;;
9445;SDS011;4761;49.490;10.908;2022-11-09T02:18:30;4.30;;;2.63;;
9445;SDS011;4761;49.490;10.908;2022-11-09T02:20:56;2.63;;;2.33;;
9445;SDS011;4761;49.490;10.908;2022-11-09T02:23:23;3.70;;;2.90;;
9445;SDS011;4761;49.490;10.908;2022-11-09T02:26:00;2.83;;;2.53;;
9445;SDS011;4761;49.490;10.908;2022-11-09T02:28:30;2.90;;;2.60;;
9445;SDS011;4761;49.490;10.908;2022-11-09T02:30:56;3.13;;;2.60;;
9445;SDS011;4761;49.490;10.908;2022-11-09T02:33:23;2.90;;;2.60;;
9445;SDS011;4761;49.490;10.908;2022-11-09T02:35:48;3.10;;;2.60;;
9445;SDS011;4761;49.490;10.908;2022-11-09T02:38:14;2.90;;;2.60;;
9445;SDS011;4761;49.490;10.908;2022-11-09T02:40:42;2.93;;;2.60;;
9445;SDS011;4761;49.490;10.908;2022-11-09T02:43:11;3.13;;;2.40;;
9445;SDS011;4761;49.490;10.908;2022-11-09T02:45:38;3.17;;;2.57;;
9445;SDS011;4761;49.490;10.908;2022-11-09T02:48:04;2.97;;;2.43;;
9445;SDS011;4761;49.490;10.908;2022-11-09T02:50:30;3.77;;;2.67;;
9445;SDS011;4761;49.490;10.908;2022-11-09T02:52:55;3.13;;;2.50;;
9445;SDS011;4761;49.490;10.908;2022-11-09T02:55:21;3.87;;;2.70;;
9445;SDS011;4761;49.490;10.908;2022-11-09T02:57:46;2.90;;;2.60;;
9445;SDS011;4761;49.490;10.908;2022-11-09T03:00:12;5.90;;;2.57;;
9445;SDS011;4761;49.490;10.908;2022-11-09T03:02:38;3.47;;;2.90;;
9445;SDS011;4761;49.490;10.908;2022-11-09T03:05:04;5.30;;;2.73;;
9445;SDS011;4761;49.490;10.908;2022-11-09T03:07:29;3.63;;;2.60;;
9445;SDS011;4761;49.490;10.908;2022-11-09T03:09:56;3.13;;;2.70;;
9445;SDS011;4761;49.490;10.908;2022-11-09T03:12:21;2.80;;;2.50;;
9445;SDS011;4761;49.490;10.908;2022-11-09T03:14:53;3.97;;;2.80;;
9445;SDS011;4761;49.490;10.908;2022-11-09T03:17:19;3.67;;;2.53;;
9445;SDS011;4761;49.490;10.908;2022-11-09T03:19:44;3.13;;;2.47;;
9445;SDS011;4761;49.490;10.908;2022-11-09T03:22:10;2.83;;;2.63;;
9445;SDS011;4761;49.490;10.908;2022-11-09T03:24:36;3.63;;;2.80;;
9445;SDS011;4761;49.490;10.908;2022-11-09T03:27:01;4.30;;;2.87;;
9445;SDS011;4761;49.490;10.908;2022-11-09T03:29:27;3.33;;;2.93;;
9445;SDS011;4761;49.490;10.908;2022-11-09T03:31:52;3.40;;;2.67;;
9445;SDS011;4761;49.490;10.908;2022-11-09T03:34:18;3.13;;;2.80;;
9445;SDS011;4761;49.490;10.908;2022-11-09T03:36:43;5.00;;;3.57;;
9445;SDS011;4761;49.490;10.908;2022-11-09T03:39:09;4.70;;;3.20;;
9445;SDS011;4761;49.490;10.908;2022-11-09T03:41:34;4.17;;;2.90;;
9445;SDS011;4761;49.490;10.908;2022-11-09T03:44:00;4.00;;;2.97;;
9445;SDS011;4761;49.490;10.908;2022-11-09T03:46:25;4.37;;;3.10;;
9445;SDS011;4761;49.490;10.908;2022-11-09T03:48:51;4.57;;;3.17;;
9445;SDS011;4761;49.490;10.908;2022-11-09T03:51:17;5.70;;;3.43;;
9445;SDS011;4761;49.490;10.908;2022-11-09T03:53:42;4.33;;;3.20;;
9445;SDS011;4761;49.490;10.908;2022-11-09T03:56:08;5.70;;;3.83;;
9445;SDS011;4761;49.490;10.908;2022-11-09T03:58:33;3.77;;;3.20;;
9445;SDS011;4761;49.490;10.908;2022-11-09T04:00:59;3.20;;;2.90;;
9445;SDS011;4761;49.490;10.908;2022-11-09T04:03:25;4.90;;;3.47;;
9445;SDS011;4761;49.490;10.908;2022-11-09T04:05:50;3.33;;;2.97;;
9445;SDS011;4761;49.490;10.908;2022-11-09T04:08:16;4.00;;;2.90;;
9445;SDS011;4761;49.490;10.908;2022-11-09T04:10:41;3.77;;;2.97;;
9445;SDS011;4761;49.490;10.908;2022-11-09T04:13:07;4.63;;;3.00;;
9445;SDS011;4761;49.490;10.908;2022-11-09T04:15:32;5.73;;;3.13;;
9445;SDS011;4761;49.490;10.908;2022-11-09T04:17:58;3.23;;;2.80;;
9445;SDS011;4761;49.490;10.908;2022-11-09T04:20:26;3.23;;;2.90;;
9445;SDS011;4761;49.490;10.908;2022-11-09T04:22:57;3.50;;;2.47;;
9445;SDS011;4761;49.490;10.908;2022-11-09T04:25:24;4.67;;;2.77;;
9445;SDS011;4761;49.490;10.908;2022-11-09T04:27:54;3.50;;;2.67;;
9445;SDS011;4761;49.490;10.908;2022-11-09T04:30:23;3.30;;;2.57;;
9445;SDS011;4761;49.490;10.908;2022-11-09T04:32:51;4.17;;;2.43;;
9445;SDS011;4761;49.490;10.908;2022-11-09T04:35:18;4.20;;;2.67;;
9445;SDS011;4761;49.490;10.908;2022-11-09T04:37:51;2.87;;;2.43;;
9445;SDS011;4761;49.490;10.908;2022-11-09T04:40:20;3.53;;;2.67;;
9445;SDS011;4761;49.490;10.908;2022-11-09T04:42:47;4.87;;;2.73;;
9445;SDS011;4761;49.490;10.908;2022-11-09T04:45:13;2.97;;;2.53;;
9445;SDS011;4761;49.490;10.908;2022-11-09T04:47:38;3.63;;;2.60;;
9445;SDS011;4761;49.490;10.908;2022-11-09T04:50:04;4.67;;;2.50;;
9445;SDS011;4761;49.490;10.908;2022-11-09T04:52:30;2.80;;;2.53;;
9445;SDS011;4761;49.490;10.908;2022-11-09T04:54:56;3.17;;;2.60;;
9445;SDS011;4761;49.490;10.908;2022-11-09T04:57:21;3.40;;;2.40;;
9445;SDS011;4761;49.490;10.908;2022-11-09T04:59:47;3.70;;;2.30;;
9445;SDS011;4761;49.490;10.908;2022-11-09T05:02:13;2.97;;;2.40;;
9445;SDS011;4761;49.490;10.908;2022-11-09T05:04:38;3.53;;;2.57;;
9445;SDS011;4761;49.490;10.908;2022-11-09T05:07:04;3.53;;;2.43;;
9445;SDS011;4761;49.490;10.908;2022-11-09T05:09:29;2.90;;;2.30;;
9445;SDS011;4761;49.490;10.908;2022-11-09T05:11:55;3.40;;;2.40;;
9445;SDS011;4761;49.490;10.908;2022-11-09T05:14:20;2.97;;;2.50;;
9445;SDS011;4761;49.490;10.908;2022-11-09T05:16:46;2.40;;;2.20;;
9445;SDS011;4761;49.490;10.908;2022-11-09T05:19:11;3.60;;;2.50;;
9445;SDS011;4761;49.490;10.908;2022-11-09T05:21:37;2.37;;;2.10;;
9445;SDS011;4761;49.490;10.908;2022-11-09T05:24:02;2.77;;;2.50;;
9445;SDS011;4761;49.490;10.908;2022-11-09T05:26:30;2.70;;;2.20;;
9445;SDS011;4761;49.490;10.908;2022-11-09T05:28:58;2.80;;;2.23;;
9445;SDS011;4761;49.490;10.908;2022-11-09T05:31:25;3.20;;;2.40;;
9445;SDS011;4761;49.490;10.908;2022-11-09T05:33:52;4.87;;;2.50;;
9445;SDS011;4761;49.490;10.908;2022-11-09T05:36:18;2.70;;;2.10;;
9445;SDS011;4761;49.490;10.908;2022-11-09T05:38:44;3.03;;;2.40;;
9445;SDS011;4761;49.490;10.908;2022-11-09T05:41:10;3.80;;;2.40;;
9445;SDS011;4761;49.490;10.908;2022-11-09T05:43:35;3.13;;;2.30;;
9445;SDS011;4761;49.490;10.908;2022-11-09T05:46:01;2.77;;;2.50;;
9445;SDS011;4761;49.490;10.908;2022-11-09T05:48:26;3.00;;;2.17;;
9445;SDS011;4761;49.490;10.908;2022-11-09T05:50:52;3.67;;;2.10;;
9445;SDS011;4761;49.490;10.908;2022-11-09T05:53:17;3.23;;;2.30;;
9445;SDS011;4761;49.490;10.908;2022-11-09T05:55:43;3.53;;;2.60;;
9445;SDS011;4761;49.490;10.908;2022-11-09T05:58:09;2.83;;;2.10;;
9445;SDS011;4761;49.490;10.908;2022-11-09T06:00:34;4.73;;;2.43;;
9445;SDS011;4761;49.490;10.908;2022-11-09T06:03:01;2.67;;;2.10;;
9445;SDS011;4761;49.490;10.908;2022-11-09T06:05:31;3.83;;;2.47;;
9445;SDS011;4761;49.490;10.908;2022-11-09T06:08:11;3.93;;;2.30;;
9445;SDS011;4761;49.490;10.908;2022-11-09T06:10:38;4.17;;;2.30;;
9445;SDS011;4761;49.490;10.908;2022-11-09T06:13:04;2.90;;;2.27;;
9445;SDS011;4761;49.490;10.908;2022-11-09T06:15:30;3.47;;;2.33;;
9445;SDS011;4761;49.490;10.908;2022-11-09T06:17:57;3.83;;;2.40;;
9445;SDS011;4761;49.490;10.908;2022-11-09T06:20:23;4.93;;;2.60;;
9445;SDS011;4761;49.490;10.908;2022-11-09T06:22:51;4.03;;;2.70;;
9445;SDS011;4761;49.490;10.908;2022-11-09T06:25:20;3.47;;;2.57;;
9445;SDS011;4761;49.490;10.908;2022-11-09T06:27:47;4.87;;;2.50;;
9445;SDS011;4761;49.490;10.908;2022-11-09T06:30:13;4.70;;;2.67;;
9445;SDS011;4761;49.490;10.908;2022-11-09T06:32:39;2.73;;;2.10;;
9445;SDS011;4761;49.490;10.908;2022-11-09T06:35:04;2.70;;;2.50;;
9445;SDS011;4761;49.490;10.908;2022-11-09T06:37:30;4.17;;;2.63;;
9445;SDS011;4761;49.490;10.908;2022-11-09T06:39:56;3.47;;;2.60;;
9445;SDS011;4761;49.490;10.908;2022-11-09T06:42:21;4.57;;;3.00;;
9445;SDS011;4761;49.490;10.908;2022-11-09T06:44:47;2.97;;;2.63;;
9445;SDS011;4761;49.490;10.908;2022-11-09T06:47:12;5.43;;;2.97;;
9445;SDS011;4761;49.490;10.908;2022-11-09T06:49:38;3.20;;;2.67;;
9445;SDS011;4761;49.490;10.908;2022-11-09T06:52:03;3.07;;;2.77;;
9445;SDS011;4761;49.490;10.908;2022-11-09T06:54:29;3.03;;;2.43;;
9445;SDS011;4761;49.490;10.908;2022-11-09T06:56:55;4.00;;;2.60;;
9445;SDS011;4761;49.490;10.908;2022-11-09T06:59:20;4.30;;;3.00;;
9445;SDS011;4761;49.490;10.908;2022-11-09T07:01:46;3.20;;;2.60;;
9445;SDS011;4761;49.490;10.908;2022-11-09T07:04:12;5.03;;;2.53;;
9445;SDS011;4761;49.490;10.908;2022-11-09T07:06:39;2.30;;;2.10;;
9445;SDS011;4761;49.490;10.908;2022-11-09T07:09:05;2.43;;;2.23;;
9445;SDS011;4761;49.490;10.908;2022-11-09T07:11:31;2.50;;;2.30;;
9445;SDS011;4761;49.490;10.908;2022-11-09T07:13:56;4.53;;;2.60;;
9445;SDS011;4761;49.490;10.908;2022-11-09T07:16:22;3.03;;;2.13;;
9445;SDS011;4761;49.490;10.908;2022-11-09T07:18:47;4.27;;;2.77;;
9445;SDS011;4761;49.490;10.908;2022-11-09T07:21:13;2.83;;;2.47;;
9445;SDS011;4761;49.490;10.908;2022-11-09T07:23:39;2.73;;;2.40;;
9445;SDS011;4761;49.490;10.908;2022-11-09T07:26:05;2.53;;;2.33;;
9445;SDS011;4761;49.490;10.908;2022-11-09T07:28:30;2.63;;;2.17;;
9445;SDS011;4761;49.490;10.908;2022-11-09T07:30:56;3.30;;;2.53;;
9445;SDS011;4761;49.490;10.908;2022-11-09T07:33:22;4.00;;;2.50;;
9445;SDS011;4761;49.490;10.908;2022-11-09T07:35:49;2.63;;;2.43;;
9445;SDS011;4761;49.490;10.908;2022-11-09T07:38:14;2.30;;;2.10;;
9445;SDS011;4761;49.490;10.908;2022-11-09T07:40:40;3.53;;;2.50;;
9445;SDS011;4761;49.490;10.908;2022-11-09T07:43:06;2.40;;;2.20;;
9445;SDS011;4761;49.490;10.908;2022-11-09T07:45:32;3.13;;;2.50;;
9445;SDS011;4761;49.490;10.908;2022-11-09T07:47:59;3.47;;;2.70;;
9445;SDS011;4761;49.490;10.908;2022-11-09T07:50:27;2.87;;;2.57;;
9445;SDS011;4761;49.490;10.908;2022-11-09T07:52:54;3.20;;;2.80;;
9445;SDS011;4761;49.490;10.908;2022-11-09T07:55:20;3.93;;;2.90;;
9445;SDS011;4761;49.490;10.908;2022-11-09T07:57:46;2.87;;;2.60;;
9445;SDS011;4761;49.490;10.908;2022-11-09T08:00:12;3.37;;;2.70;;
9445;SDS011;4761;49.490;10.908;2022-11-09T08:02:38;3.90;;;3.00;;
9445;SDS011;4761;49.490;10.908;2022-11-09T08:05:04;3.40;;;2.73;;
9445;SDS011;4761;49.490;10.908;2022-11-09T08:07:30;2.70;;;2.50;;
9445;SDS011;4761;49.490;10.908;2022-11-09T08:09:57;3.20;;;2.90;;
9445;SDS011;4761;49.490;10.908;2022-11-09T08:12:23;3.10;;;2.80;;
9445;SDS011;4761;49.490;10.908;2022-11-09T08:14:48;3.30;;;2.47;;
9445;SDS011;4761;49.490;10.908;2022-11-09T08:17:14;2.60;;;2.40;;
9445;SDS011;4761;49.490;10.908;2022-11-09T08:19:39;4.53;;;2.60;;
9445;SDS011;4761;49.490;10.908;2022-11-09T08:22:05;3.73;;;3.07;;
9445;SDS011;4761;49.490;10.908;2022-11-09T08:24:30;3.67;;;3.33;;
9445;SDS011;4761;49.490;10.908;2022-11-09T08:26:56;3.33;;;3.00;;
9445;SDS011;4761;49.490;10.908;2022-11-09T08:29:21;3.73;;;3.20;;
9445;SDS011;4761;49.490;10.908;2022-11-09T08:31:48;3.30;;;3.00;;
9445;SDS011;4761;49.490;10.908;2022-11-09T08:34:15;3.37;;;2.70;;
9445;SDS011;4761;49.490;10.908;2022-11-09T08:36:41;3.23;;;2.70;;
9445;SDS011;4761;49.490;10.908;2022-11-09T08:39:06;3.03;;;2.67;;
9445;SDS011;4761;49.490;10.908;2022-11-09T08:41:32;2.60;;;2.40;;
9445;SDS011;4761;49.490;10.908;2022-11-09T08:43:58;3.27;;;2.87;;
9445;SDS011;4761;49.490;10.908;2022-11-09T08:46:23;2.60;;;2.37;;
9445;SDS011;4761;49.490;10.908;2022-11-09T08:48:49;2.60;;;2.40;;
9445;SDS011;4761;49.490;10.908;2022-11-09T08:51:14;2.50;;;2.30;;
9445;SDS011;4761;49.490;10.908;2022-11-09T08:53:40;2.53;;;2.23;;
9445;SDS011;4761;49.490;10.908;2022-11-09T08:56:06;3.43;;;2.83;;
9445;SDS011;4761;49.490;10.908;2022-11-09T08:58:32;3.00;;;2.43;;
9445;SDS011;4761;49.490;10.908;2022-11-09T09:00:58;3.73;;;2.90;;
9445;SDS011;4761;49.490;10.908;2022-11-09T09:03:24;3.20;;;2.70;;
9445;SDS011;4761;49.490;10.908;2022-11-09T09:05:49;4.23;;;2.90;;
9445;SDS011;4761;49.490;10.908;2022-11-09T09:08:15;4.27;;;2.70;;
9445;SDS011;4761;49.490;10.908;2022-11-09T09:10:45;3.40;;;2.93;;
9445;SDS011;4761;49.490;10.908;2022-11-09T09:13:11;4.13;;;2.80;;
9445;SDS011;4761;49.490;10.908;2022-11-09T09:15:37;3.00;;;2.70;;
9445;SDS011;4761;49.490;10.908;2022-11-09T09:18:02;5.67;;;3.27;;
9445;SDS011;4761;49.490;10.908;2022-11-09T09:20:28;4.97;;;2.83;;
9445;SDS011;4761;49.490;10.908;2022-11-09T09:22:56;6.37;;;2.87;;
9445;SDS011;4761;49.490;10.908;2022-11-09T09:25:23;4.37;;;2.57;;
9445;SDS011;4761;49.490;10.908;2022-11-09T09:27:49;2.93;;;2.67;;
9445;SDS011;4761;49.490;10.908;2022-11-09T09:30:14;3.43;;;2.77;;
9445;SDS011;4761;49.490;10.908;2022-11-09T09:32:40;3.50;;;3.07;;
9445;SDS011;4761;49.490;10.908;2022-11-09T09:35:05;3.43;;;2.90;;
9445;SDS011;4761;49.490;10.908;2022-11-09T09:37:31;4.20;;;2.77;;
9445;SDS011;4761;49.490;10.908;2022-11-09T09:39:57;3.67;;;2.80;;
9445;SDS011;4761;49.490;10.908;2022-11-09T09:42:30;4.17;;;2.97;;
9445;SDS011;4761;49.490;10.908;2022-11-09T09:47:59;4.13;;;3.13;;
9445;SDS011;4761;49.490;10.908;2022-11-09T09:50:49;4.23;;;3.10;;
9445;SDS011;4761;49.490;10.908;2022-11-09T09:53:34;4.40;;;3.60;;
9445;SDS011;4761;49.490;10.908;2022-11-09T09:56:19;4.43;;;3.23;;
9445;SDS011;4761;49.490;10.908;2022-11-09T09:58:51;5.90;;;3.33;;
9445;SDS011;4761;49.490;10.908;2022-11-09T10:01:27;4.43;;;3.43;;
9445;SDS011;4761;49.490;10.908;2022-11-09T10:04:01;5.47;;;4.07;;
9445;SDS011;4761;49.490;10.908;2022-11-09T10:06:48;6.83;;;4.67;;
9445;SDS011;4761;49.490;10.908;2022-11-09T10:23:34;4.93;;;3.27;;
9445;SDS011;4761;49.490;10.908;2022-11-09T10:28:58;4.33;;;3.40;;
9445;SDS011;4761;49.490;10.908;2022-11-09T10:31:28;4.27;;;3.30;;
9445;SDS011;4761;49.490;10.908;2022-11-09T10:33:59;4.77;;;3.90;;
9445;SDS011;4761;49.490;10.908;2022-11-09T10:36:43;5.90;;;3.63;;
9445;SDS011;4761;49.490;10.908;2022-11-09T10:39:13;5.13;;;3.33;;
9445;SDS011;4761;49.490;10.908;2022-11-09T10:41:41;4.00;;;3.03;;
9445;SDS011;4761;49.490;10.908;2022-11-09T10:44:14;4.60;;;3.27;;
9445;SDS011;4761;49.490;10.908;2022-11-09T10:47:00;4.40;;;3.17;;
9445;SDS011;4761;49.490;10.908;2022-11-09T10:49:36;4.10;;;3.50;;
9445;SDS011;4761;49.490;10.908;2022-11-09T10:52:02;3.47;;;3.00;;
9445;SDS011;4761;49.490;10.908;2022-11-09T10:54:31;4.33;;;3.60;;
9445;SDS011;4761;49.490;10.908;2022-11-09T10:57:00;3.43;;;3.00;;
9445;SDS011;4761;49.490;10.908;2022-11-09T10:59:34;3.47;;;3.00;;
9445;SDS011;4761;49.490;10.908;2022-11-09T11:02:35;4.33;;;3.27;;
9445;SDS011;4761;49.490;10.908;2022-11-09T11:04:50;3.60;;;3.10;;
9445;SDS011;4761;49.490;10.908;2022-11-09T11:07:21;3.93;;;3.10;;
9445;SDS011;4761;49.490;10.908;2022-11-09T11:09:47;3.57;;;3.00;;
9445;SDS011;4761;49.490;10.908;2022-11-09T11:12:13;3.40;;;2.73;;
9445;SDS011;4761;49.490;10.908;2022-11-09T11:14:42;3.23;;;2.53;;
9445;SDS011;4761;49.490;10.908;2022-11-09T11:17:22;3.77;;;2.80;;
9445;SDS011;4761;49.490;10.908;2022-11-09T11:19:50;3.87;;;2.60;;
9445;SDS011;4761;49.490;10.908;2022-11-09T11:22:20;3.10;;;2.80;;
9445;SDS011;4761;49.490;10.908;2022-11-09T11:29:54;4.10;;;2.50;;
9445;SDS011;4761;49.490;10.908;2022-11-09T11:32:43;2.90;;;2.60;;
9445;SDS011;4761;49.490;10.908;2022-11-09T11:35:13;3.50;;;2.50;;
9445;SDS011;4761;49.490;10.908;2022-11-09T11:37:52;4.50;;;2.57;;
9445;SDS011;4761;49.490;10.908;2022-11-09T11:40:20;3.07;;;2.77;;
9445;SDS011;4761;49.490;10.908;2022-11-09T11:45:40;3.63;;;2.87;;
9445;SDS011;4761;49.490;10.908;2022-11-09T12:09:00;3.40;;;2.53;;
9445;SDS011;4761;49.490;10.908;2022-11-09T12:11:47;3.03;;;2.27;;
9445;SDS011;4761;49.490;10.908;2022-11-09T12:17:21;3.53;;;2.30;;
9445;SDS011;4761;49.490;10.908;2022-11-09T12:28:42;3.10;;;2.20;;
9445;SDS011;4761;49.490;10.908;2022-11-09T12:36:14;3.07;;;1.90;;
9445;SDS011;4761;49.490;10.908;2022-11-09T12:38:58;2.57;;;2.00;;
9445;SDS011;4761;49.490;10.908;2022-11-09T12:41:32;2.73;;;2.00;;
9445;SDS011;4761;49.490;10.908;2022-11-09T12:46:55;3.20;;;2.20;;
9445;SDS011;4761;49.490;10.908;2022-11-09T12:49:37;2.30;;;1.93;;
9445;SDS011;4761;49.490;10.908;2022-11-09T12:52:05;2.73;;;1.80;;
9445;SDS011;4761;49.490;10.908;2022-11-09T12:54:33;1.80;;;1.60;;
9445;SDS011;4761;49.490;10.908;2022-11-09T12:57:01;2.33;;;1.70;;
9445;SDS011;4761;49.490;10.908;2022-11-09T12:59:33;2.03;;;1.70;;
9445;SDS011;4761;49.490;10.908;2022-11-09T13:02:01;1.93;;;1.70;;
9445;SDS011;4761;49.490;10.908;2022-11-09T13:04:28;2.00;;;1.77;;
9445;SDS011;4761;49.490;10.908;2022-11-09T13:09:37;2.20;;;2.00;;
9445;SDS011;4761;49.490;10.908;2022-11-09T13:12:17;2.10;;;1.90;;
9445;SDS011;4761;49.490;10.908;2022-11-09T13:14:57;2.40;;;1.83;;
9445;SDS011;4761;49.490;10.908;2022-11-09T13:17:58;2.27;;;1.90;;
9445;SDS011;4761;49.490;10.908;2022-11-09T13:22:59;2.07;;;1.70;;
9445;SDS011;4761;49.490;10.908;2022-11-09T13:30:55;1.70;;;1.60;;
9445;SDS011;4761;49.490;10.908;2022-11-09T13:33:30;2.53;;;1.60;;
9445;SDS011;4761;49.490;10.908;2022-11-09T13:35:58;1.63;;;1.53;;
9445;SDS011;4761;49.490;10.908;2022-11-09T13:38:27;3.13;;;1.60;;
9445;SDS011;4761;49.490;10.908;2022-11-09T13:40:55;2.10;;;1.70;;
9445;SDS011;4761;49.490;10.908;2022-11-09T13:43:25;2.60;;;1.83;;
9445;SDS011;4761;49.490;10.908;2022-11-09T13:46:03;2.07;;;1.50;;
9445;SDS011;4761;49.490;10.908;2022-11-09T13:48:50;3.77;;;1.60;;
9445;SDS011;4761;49.490;10.908;2022-11-09T13:54:03;1.53;;;1.40;;
9445;SDS011;4761;49.490;10.908;2022-11-09T13:56:49;1.40;;;1.30;;
9445;SDS011;4761;49.490;10.908;2022-11-09T13:59:27;2.93;;;1.60;;
9445;SDS011;4761;49.490;10.908;2022-11-09T14:01:57;1.60;;;1.50;;
9445;SDS011;4761;49.490;10.908;2022-11-09T14:07:01;1.53;;;1.43;;
9445;SDS011;4761;49.490;10.908;2022-11-09T14:09:27;2.33;;;1.30;;
9445;SDS011;4761;49.490;10.908;2022-11-09T14:12:21;1.53;;;1.43;;
9445;SDS011;4761;49.490;10.908;2022-11-09T14:20:37;2.10;;;1.20;;
9445;SDS011;4761;49.490;10.908;2022-11-09T14:23:23;1.70;;;1.50;;
9445;SDS011;4761;49.490;10.908;2022-11-09T14:25:52;1.50;;;1.40;;
9445;SDS011;4761;49.490;10.908;2022-11-09T14:28:21;3.33;;;1.53;;
9445;SDS011;4761;49.490;10.908;2022-11-09T14:30:48;1.80;;;1.47;;
9445;SDS011;4761;49.490;10.908;2022-11-09T14:33:24;1.50;;;1.40;;
9445;SDS011;4761;49.490;10.908;2022-11-09T14:35:52;2.03;;;1.50;;
9445;SDS011;4761;49.490;10.908;2022-11-09T14:38:21;1.60;;;1.43;;
9445;SDS011;4761;49.490;10.908;2022-11-09T14:40:50;1.70;;;1.37;;
9445;SDS011;4761;49.490;10.908;2022-11-09T14:43:29;1.57;;;1.37;;
9445;SDS011;4761;49.490;10.908;2022-11-09T14:46:02;1.80;;;1.50;;
9445;SDS011;4761;49.490;10.908;2022-11-09T14:48:30;1.37;;;1.27;;
9445;SDS011;4761;49.490;10.908;2022-11-09T14:50:59;1.20;;;1.10;;
9445;SDS011;4761;49.490;10.908;2022-11-09T14:53:30;1.73;;;1.50;;
9445;SDS011;4761;49.490;10.908;2022-11-09T14:55:58;2.50;;;1.40;;
9445;SDS011;4761;49.490;10.908;2022-11-09T14:58:27;2.03;;;1.40;;
9445;SDS011;4761;49.490;10.908;2022-11-09T15:03:45;2.00;;;1.60;;
9445;SDS011;4761;49.490;10.908;2022-11-09T15:06:45;1.40;;;1.30;;
9445;SDS011;4761;49.490;10.908;2022-11-09T15:09:23;1.93;;;1.70;;
9445;SDS011;4761;49.490;10.908;2022-11-09T15:12:16;1.85;;;1.45;;
9445;SDS011;4761;49.490;10.908;2022-11-09T15:14:47;1.33;;;1.20;;
9445;SDS011;4761;49.490;10.908;2022-11-09T15:17:17;1.70;;;1.57;;
9445;SDS011;4761;49.490;10.908;2022-11-09T15:22:46;1.40;;;1.30;;
9445;SDS011;4761;49.490;10.908;2022-11-09T15:25:23;1.40;;;1.27;;
9445;SDS011;4761;49.490;10.908;2022-11-09T15:30:34;1.37;;;1.20;;
9445;SDS011;4761;49.490;10.908;2022-11-09T15:33:16;1.63;;;1.30;;
9445;SDS011;4761;49.490;10.908;2022-11-09T15:36:02;1.97;;;1.50;;
9445;SDS011;4761;49.490;10.908;2022-11-09T15:38:38;1.43;;;1.30;;
9445;SDS011;4761;49.490;10.908;2022-11-09T15:41:09;2.13;;;1.30;;
9445;SDS011;4761;49.490;10.908;2022-11-09T15:43:41;1.37;;;1.27;;
9445;SDS011;4761;49.490;10.908;2022-11-09T15:46:09;2.53;;;1.50;;
9445;SDS011;4761;49.490;10.908;2022-11-09T15:48:43;1.40;;;1.23;;
9445;SDS011;4761;49.490;10.908;2022-11-09T15:51:09;2.97;;;1.60;;
9445;SDS011;4761;49.490;10.908;2022-11-09T15:53:35;2.10;;;1.37;;
9445;SDS011;4761;49.490;10.908;2022-11-09T15:56:01;1.40;;;1.30;;
9445;SDS011;4761;49.490;10.908;2022-11-09T15:58:27;1.77;;;1.23;;
9445;SDS011;4761;49.490;10.908;2022-11-09T16:00:52;1.23;;;1.13;;
9445;SDS011;4761;49.490;10.908;2022-11-09T16:03:18;2.23;;;1.50;;
9445;SDS011;4761;49.490;10.908;2022-11-09T16:05:43;1.90;;;1.37;;
9445;SDS011;4761;49.490;10.908;2022-11-09T16:08:09;1.20;;;1.10;;
9445;SDS011;4761;49.490;10.908;2022-11-09T16:10:35;1.30;;;1.20;;
9445;SDS011;4761;49.490;10.908;2022-11-09T16:13:02;1.40;;;1.30;;
9445;SDS011;4761;49.490;10.908;2022-11-09T16:15:29;1.63;;;1.53;;
9445;SDS011;4761;49.490;10.908;2022-11-09T16:17:55;2.30;;;1.40;;
9445;SDS011;4761;49.490;10.908;2022-11-09T16:20:20;1.93;;;1.40;;
9445;SDS011;4761;49.490;10.908;2022-11-09T16:22:46;1.73;;;1.40;;
9445;SDS011;4761;49.490;10.908;2022-11-09T16:25:12;1.40;;;1.20;;
9445;SDS011;4761;49.490;10.908;2022-11-09T16:27:38;1.63;;;1.50;;
9445;SDS011;4761;49.490;10.908;2022-11-09T16:30:04;1.57;;;1.23;;
9445;SDS011;4761;49.490;10.908;2022-11-09T16:32:32;1.80;;;1.50;;
9445;SDS011;4761;49.490;10.908;2022-11-09T16:34:58;2.33;;;1.70;;
9445;SDS011;4761;49.490;10.908;2022-11-09T16:37:23;1.70;;;1.60;;
9445;SDS011;4761;49.490;10.908;2022-11-09T16:39:49;1.83;;;1.73;;
9445;SDS011;4761;49.490;10.908;2022-11-09T16:42:16;3.07;;;1.80;;
9445;SDS011;4761;49.490;10.908;2022-11-09T16:44:42;1.83;;;1.70;;
9445;SDS011;4761;49.490;10.908;2022-11-09T16:47:12;1.60;;;1.50;;